createdAt,value
2017-08-15T00:02:05.446Z,13.50
2017-08-15T00:04:34.662Z,13.60
2017-08-15T00:07:03.137Z,13.50
2017-08-15T00:09:31.545Z,13.60
2017-08-15T00:11:59.958Z,13.60
2017-08-15T00:14:28.373Z,13.60
2017-08-15T00:16:56.809Z,13.60
2017-08-15T00:19:25.213Z,13.60
2017-08-15T00:21:53.629Z,13.50
2017-08-15T00:24:22.057Z,13.50
2017-08-15T00:26:50.457Z,13.50
2017-08-15T00:29:18.854Z,13.50
2017-08-15T00:31:47.284Z,13.40
2017-08-15T00:34:15.686Z,13.40
2017-08-15T00:36:44.098Z,13.30
2017-08-15T00:39:12.517Z,13.30
2017-08-15T00:41:40.913Z,13.30
2017-08-15T00:44:09.321Z,13.30
2017-08-15T00:46:37.745Z,13.20
2017-08-15T00:49:06.161Z,13.20
2017-08-15T00:51:34.557Z,13.20
2017-08-15T00:54:02.990Z,13.10
2017-08-15T00:56:31.393Z,13.10
2017-08-15T00:58:59.829Z,13.10
2017-08-15T01:01:27.561Z,13.00
2017-08-15T01:03:55.973Z,13.00
2017-08-15T01:06:24.386Z,13.00
2017-08-15T01:08:52.850Z,12.90
2017-08-15T01:11:21.248Z,13.00
2017-08-15T01:13:49.646Z,12.90
2017-08-15T01:16:18.082Z,13.00
2017-08-15T01:18:46.497Z,13.00
2017-08-15T01:21:14.897Z,12.90
2017-08-15T01:23:43.318Z,12.90
2017-08-15T01:26:11.721Z,12.90
2017-08-15T01:28:40.134Z,13.00
2017-08-15T01:31:08.580Z,13.00
2017-08-15T01:33:37.017Z,13.00
2017-08-15T01:36:05.425Z,13.00
2017-08-15T01:38:33.882Z,13.00
2017-08-15T01:41:02.297Z,13.00
2017-08-15T01:43:30.693Z,13.00
2017-08-15T01:45:59.125Z,13.00
2017-08-15T01:48:27.533Z,12.90
2017-08-15T01:50:55.937Z,12.90
2017-08-15T01:53:24.405Z,12.80
2017-08-15T01:55:52.806Z,12.80
2017-08-15T01:58:21.205Z,12.80
2017-08-15T02:00:49.633Z,12.80
2017-08-15T02:03:18.042Z,12.70
2017-08-15T02:05:46.450Z,12.70
2017-08-15T02:08:14.878Z,12.60
2017-08-15T02:10:44.106Z,12.60
2017-08-15T02:13:12.564Z,12.60
2017-08-15T02:15:40.996Z,12.60
2017-08-15T02:18:09.403Z,12.60
2017-08-15T02:20:37.806Z,12.60
2017-08-15T02:23:06.223Z,12.60
2017-08-15T02:25:34.670Z,12.60
2017-08-15T02:28:03.134Z,12.60
2017-08-15T02:30:31.565Z,12.60
2017-08-15T02:33:00.653Z,12.60
2017-08-15T02:35:29.105Z,12.60
2017-08-15T02:37:57.514Z,12.50
2017-08-15T02:40:25.909Z,12.50
2017-08-15T02:42:54.369Z,12.50
2017-08-15T02:45:22.790Z,12.50
2017-08-15T02:47:51.189Z,12.50
2017-08-15T02:50:19.618Z,12.40
2017-08-15T02:52:48.026Z,12.40
2017-08-15T02:55:16.482Z,12.40
2017-08-15T02:57:44.913Z,12.40
2017-08-15T03:00:13.318Z,12.40
2017-08-15T03:02:42.501Z,12.30
2017-08-15T03:05:10.938Z,12.30
2017-08-15T03:07:39.357Z,12.30
2017-08-15T03:10:07.786Z,12.30
2017-08-15T03:12:36.198Z,12.30
2017-08-15T03:15:04.596Z,12.30
2017-08-15T03:17:33.026Z,12.30
2017-08-15T03:20:01.433Z,12.20
2017-08-15T03:22:29.832Z,12.30
2017-08-15T03:24:58.260Z,12.20
2017-08-15T03:27:26.665Z,12.30
2017-08-15T03:29:55.113Z,12.30
2017-08-15T03:32:23.571Z,12.30
2017-08-15T03:34:51.990Z,12.20
2017-08-15T03:37:20.442Z,12.20
2017-08-15T03:39:48.885Z,12.20
2017-08-15T03:42:17.289Z,12.10
2017-08-15T03:44:45.697Z,12.10
2017-08-15T03:47:14.162Z,12.20
2017-08-15T03:49:42.561Z,12.10
2017-08-15T03:52:10.978Z,12.10
2017-08-15T03:54:39.421Z,12.00
2017-08-15T03:57:07.826Z,12.00
2017-08-15T03:59:36.229Z,12.10
2017-08-15T04:02:04.665Z,12.10
2017-08-15T04:04:33.083Z,12.10
2017-08-15T04:07:01.498Z,12.10
2017-08-15T04:09:29.908Z,12.20
2017-08-15T04:11:58.345Z,12.40
2017-08-15T04:14:26.749Z,12.70
2017-08-15T04:16:55.153Z,12.90
2017-08-15T04:19:23.578Z,13.10
2017-08-15T04:21:51.977Z,13.20
2017-08-15T04:24:20.378Z,13.30
2017-08-15T04:26:48.805Z,13.20
2017-08-15T04:29:17.201Z,13.30
2017-08-15T04:31:45.609Z,13.30
2017-08-15T04:34:14.046Z,13.30
2017-08-15T04:36:42.454Z,13.30
2017-08-15T04:39:10.854Z,13.30
2017-08-15T04:41:39.278Z,13.20
2017-08-15T04:44:07.678Z,13.30
2017-08-15T04:46:36.077Z,13.30
2017-08-15T04:49:04.501Z,13.30
2017-08-15T04:51:32.905Z,13.40
2017-08-15T04:54:01.309Z,13.40
2017-08-15T04:56:29.722Z,13.40
2017-08-15T04:58:58.122Z,13.40
2017-08-15T05:01:26.561Z,13.40
2017-08-15T05:03:54.966Z,13.60
2017-08-15T05:06:23.366Z,13.70
2017-08-15T05:08:51.788Z,14.00
2017-08-15T05:11:20.185Z,14.20
2017-08-15T05:13:48.602Z,14.40
2017-08-15T05:16:17.086Z,14.70
2017-08-15T05:18:45.511Z,15.00
2017-08-15T05:21:13.922Z,15.20
2017-08-15T05:23:42.346Z,15.40
2017-08-15T05:26:10.760Z,15.70
2017-08-15T05:28:39.196Z,16.00
2017-08-15T05:31:07.626Z,16.20
2017-08-15T05:33:36.041Z,16.30
2017-08-15T05:36:04.484Z,16.50
2017-08-15T05:38:32.957Z,16.60
2017-08-15T05:41:02.208Z,16.80
2017-08-15T05:43:31.777Z,17.00
2017-08-15T05:46:00.220Z,17.20
2017-08-15T05:48:30.279Z,17.60
2017-08-15T05:51:02.356Z,17.80
2017-08-15T05:53:30.810Z,18.10
2017-08-15T05:55:59.266Z,18.20
2017-08-15T05:58:31.050Z,18.50
2017-08-15T06:00:59.542Z,18.60
2017-08-15T06:03:27.999Z,18.90
2017-08-15T06:06:05.894Z,19.20
2017-08-15T06:08:34.361Z,19.40
2017-08-15T06:11:10.641Z,20.00
2017-08-15T06:13:41.682Z,20.30
2017-08-15T06:16:12.902Z,21.00
2017-08-15T06:18:42.337Z,21.00
2017-08-15T06:21:10.798Z,21.30
2017-08-15T06:23:41.802Z,21.90
2017-08-15T06:26:10.338Z,21.90
2017-08-15T06:28:39.046Z,22.10
2017-08-15T06:31:07.497Z,22.50
2017-08-15T06:33:36.167Z,22.90
2017-08-15T06:36:04.589Z,23.10
2017-08-15T06:38:32.986Z,23.40
2017-08-15T06:41:01.417Z,23.60
2017-08-15T06:43:30.240Z,23.70
2017-08-15T06:45:59.478Z,23.80
2017-08-15T06:51:12.585Z,24.10
2017-08-15T06:58:55.129Z,25.00
2017-08-15T07:01:23.763Z,25.90
2017-08-15T07:03:52.423Z,26.20
2017-08-15T07:06:22.126Z,26.90
2017-08-15T07:08:51.585Z,27.60
2017-08-15T07:11:21.263Z,28.50
2017-08-15T07:13:51.773Z,29.30
2017-08-15T07:16:21.661Z,29.50
2017-08-15T07:18:53.052Z,30.50
2017-08-15T07:21:23.058Z,31.00
2017-08-15T07:23:51.881Z,32.10
2017-08-15T07:26:25.074Z,31.40
2017-08-15T07:28:55.846Z,31.50
2017-08-15T07:31:24.422Z,31.30
2017-08-15T07:33:55.039Z,30.90
2017-08-15T07:36:42.730Z,30.80
2017-08-15T07:39:17.946Z,30.80
2017-08-15T07:41:51.626Z,30.60
2017-08-15T07:44:28.787Z,31.50
2017-08-15T07:47:05.193Z,31.70
2017-08-15T07:52:20.781Z,31.50
2017-08-15T08:00:31.350Z,33.30
2017-08-15T08:03:05.476Z,34.00
2017-08-15T08:08:28.325Z,33.60
2017-08-15T08:10:59.548Z,33.20
2017-08-15T08:19:13.867Z,34.40
2017-08-15T08:22:02.665Z,34.60
2017-08-15T08:28:04.026Z,34.40
2017-08-15T08:30:35.651Z,34.40
2017-08-15T08:42:33.319Z,34.80
2017-08-15T08:48:30.842Z,36.20
2017-08-15T08:54:13.393Z,36.50
2017-08-15T08:59:37.367Z,37.50
2017-08-15T09:05:15.006Z,36.60
2017-08-15T09:07:45.368Z,36.90
2017-08-15T09:10:19.058Z,36.60
2017-08-15T09:12:47.494Z,37.10
2017-08-15T09:15:16.404Z,37.30
2017-08-15T09:17:44.912Z,37.90
2017-08-15T09:20:13.467Z,36.80
2017-08-15T09:22:41.852Z,37.00
2017-08-15T09:25:10.920Z,37.10
2017-08-15T09:27:39.438Z,37.10
2017-08-15T09:30:07.942Z,37.30
2017-08-15T09:40:08.324Z,37.20
2017-08-15T09:46:35.889Z,36.70
2017-08-15T09:57:51.727Z,37.50
2017-08-15T10:37:18.573Z,38.50
2017-08-15T10:39:47.123Z,37.90
2017-08-15T10:42:17.373Z,37.40
2017-08-15T10:44:52.509Z,37.40
2017-08-15T10:47:20.985Z,37.70
2017-08-15T10:49:49.482Z,37.50
2017-08-15T10:52:18.027Z,38.20
2017-08-15T10:54:46.599Z,37.70
2017-08-15T10:57:14.935Z,37.30
2017-08-15T10:59:43.256Z,37.80
2017-08-15T11:02:11.811Z,38.60
2017-08-15T11:04:40.130Z,38.20
2017-08-15T11:07:08.661Z,38.00
2017-08-15T11:09:37.163Z,37.90
2017-08-15T11:12:06.594Z,37.40
2017-08-15T11:14:35.068Z,38.00
2017-08-15T11:17:03.527Z,37.30
2017-08-15T11:19:32.071Z,36.50
2017-08-15T11:22:00.498Z,37.00
2017-08-15T11:24:28.987Z,37.40
2017-08-15T11:26:57.518Z,37.00
2017-08-15T11:29:26.028Z,37.30
2017-08-15T11:31:54.552Z,37.80
2017-08-15T11:34:23.090Z,37.00
2017-08-15T11:36:51.623Z,36.80
2017-08-15T11:39:20.154Z,35.90
2017-08-15T11:41:48.621Z,36.50
2017-08-15T11:44:17.211Z,36.50
2017-08-15T11:46:45.662Z,36.70
2017-08-15T11:49:14.174Z,36.70
2017-08-15T11:51:42.684Z,36.60
2017-08-15T11:54:11.193Z,36.50
2017-08-15T11:56:39.691Z,36.70
2017-08-15T11:59:08.251Z,36.00
2017-08-15T12:01:36.740Z,36.20
2017-08-15T12:04:05.262Z,36.20
2017-08-15T12:06:33.644Z,35.60
2017-08-15T12:09:02.124Z,35.00
2017-08-15T12:11:30.612Z,34.70
2017-08-15T12:13:59.103Z,35.00
2017-08-15T12:16:28.333Z,36.00
2017-08-15T12:18:56.775Z,35.90
2017-08-15T12:21:26.045Z,34.70
2017-08-15T12:23:54.484Z,34.70
2017-08-15T12:26:22.945Z,34.10
2017-08-15T12:28:51.420Z,33.40
2017-08-15T12:31:19.872Z,33.30
2017-08-15T12:33:48.371Z,34.30
2017-08-15T12:36:16.859Z,34.50
2017-08-15T12:38:45.324Z,34.50
2017-08-15T12:41:13.784Z,34.50
2017-08-15T12:43:42.259Z,34.70
2017-08-15T12:46:10.775Z,34.10
2017-08-15T12:48:39.223Z,34.30
2017-08-15T12:51:07.743Z,34.10
2017-08-15T12:53:36.207Z,34.00
2017-08-15T12:56:04.718Z,33.40
2017-08-15T12:58:33.184Z,33.10
2017-08-15T13:01:01.633Z,33.10
2017-08-15T13:03:30.122Z,32.20
2017-08-15T13:05:58.642Z,32.10
2017-08-15T13:08:27.126Z,32.30
2017-08-15T13:10:55.650Z,32.30
2017-08-15T13:13:24.092Z,32.00
2017-08-15T13:15:52.355Z,31.90
2017-08-15T13:18:20.851Z,31.30
2017-08-15T13:20:49.329Z,31.30
2017-08-15T13:23:17.807Z,31.80
2017-08-15T13:25:46.132Z,31.90
2017-08-15T13:28:14.407Z,31.60
2017-08-15T13:30:42.740Z,31.50
2017-08-15T13:33:11.062Z,31.40
2017-08-15T13:35:39.359Z,31.20
2017-08-15T13:38:07.663Z,30.60
2017-08-15T13:40:35.968Z,30.60
2017-08-15T13:43:04.459Z,31.00
2017-08-15T13:45:32.788Z,31.10
2017-08-15T13:48:01.108Z,31.30
2017-08-15T13:50:29.573Z,31.50
2017-08-15T13:52:58.060Z,31.40
2017-08-15T13:55:26.359Z,31.20
2017-08-15T13:57:54.702Z,31.00
2017-08-15T14:00:22.986Z,30.70
2017-08-15T14:02:51.359Z,31.00
2017-08-15T14:05:19.620Z,31.00
2017-08-15T14:07:47.944Z,30.50
2017-08-15T14:12:54.971Z,30.70
2017-08-15T14:15:23.299Z,30.70
2017-08-15T14:17:51.823Z,30.70
2017-08-15T14:20:20.180Z,30.20
2017-08-15T14:22:48.686Z,30.50
2017-08-15T14:25:17.213Z,30.30
2017-08-15T14:27:45.679Z,30.10
2017-08-15T14:30:13.931Z,30.10
2017-08-15T14:32:42.462Z,30.40
2017-08-15T14:35:11.011Z,30.20
2017-08-15T14:37:39.471Z,29.90
2017-08-15T14:40:07.750Z,29.80
2017-08-15T14:42:36.004Z,29.80
2017-08-15T14:45:03.794Z,29.60
2017-08-15T14:47:32.918Z,29.30
2017-08-15T14:50:01.189Z,29.30
2017-08-15T14:52:30.235Z,29.40
2017-08-15T14:54:58.551Z,29.40
2017-08-15T14:57:26.834Z,29.50
2017-08-15T14:59:55.146Z,29.60
2017-08-15T15:02:23.462Z,29.60
2017-08-15T15:04:51.783Z,29.40
2017-08-15T15:07:20.046Z,29.30
2017-08-15T15:09:48.339Z,29.10
2017-08-15T15:12:16.635Z,28.90
2017-08-15T15:14:45.716Z,28.80
2017-08-15T15:17:14.072Z,28.80
2017-08-15T15:19:42.423Z,29.00
2017-08-15T15:22:10.748Z,29.00
2017-08-15T15:24:39.106Z,29.00
2017-08-15T15:27:07.464Z,29.20
2017-08-15T15:29:35.799Z,28.80
2017-08-15T15:32:05.799Z,28.60
2017-08-15T15:34:34.152Z,28.30
2017-08-15T15:37:02.654Z,28.20
2017-08-15T15:39:31.182Z,28.20
2017-08-15T15:41:59.523Z,28.20
2017-08-15T15:44:27.862Z,28.30
2017-08-15T15:46:56.359Z,28.10
2017-08-15T15:49:24.927Z,28.10
2017-08-15T15:51:53.312Z,28.10
2017-08-15T15:54:21.815Z,28.20
2017-08-15T15:56:50.295Z,28.20
2017-08-15T15:59:18.631Z,28.20
2017-08-15T16:01:46.774Z,27.80
2017-08-15T16:04:15.330Z,27.50
2017-08-15T16:06:43.822Z,27.50
2017-08-15T16:09:12.351Z,27.50
2017-08-15T16:11:40.882Z,27.40
2017-08-15T16:14:09.522Z,27.40
2017-08-15T16:16:38.066Z,27.30
2017-08-15T16:19:06.593Z,27.30
2017-08-15T16:21:35.118Z,27.10
2017-08-15T16:24:03.655Z,26.90
2017-08-15T16:26:32.224Z,26.80
2017-08-15T16:29:00.724Z,26.50
2017-08-15T16:31:29.236Z,26.60
2017-08-15T16:33:57.746Z,26.30
2017-08-15T16:36:26.287Z,26.10
2017-08-15T16:38:54.844Z,25.90
2017-08-15T16:41:24.024Z,25.50
2017-08-15T16:43:53.080Z,25.40
2017-08-15T16:46:21.387Z,25.30
2017-08-15T16:48:49.690Z,25.10
2017-08-15T16:51:18.166Z,25.00
2017-08-15T16:53:46.699Z,24.80
2017-08-15T16:56:15.099Z,24.70
2017-08-15T16:58:43.603Z,24.50
2017-08-15T17:01:12.114Z,24.20
2017-08-15T17:03:40.691Z,23.70
2017-08-15T17:06:09.218Z,23.50
2017-08-15T17:08:37.702Z,23.30
2017-08-15T17:11:06.272Z,23.00
2017-08-15T17:13:34.815Z,22.90
2017-08-15T17:16:19.976Z,22.70
2017-08-15T17:18:48.495Z,22.40
2017-08-15T17:21:17.087Z,22.30
2017-08-15T17:23:45.639Z,22.10
2017-08-15T17:26:14.130Z,22.10
2017-08-15T17:28:42.631Z,21.90
2017-08-15T17:31:11.207Z,21.80
2017-08-15T17:33:43.702Z,21.70
2017-08-15T17:41:58.301Z,21.50
2017-08-15T18:01:16.326Z,20.50
2017-08-15T18:03:44.884Z,20.30
2017-08-15T18:06:13.397Z,20.30
2017-08-15T18:08:41.953Z,20.10
2017-08-15T18:11:11.511Z,20.10
2017-08-15T18:13:40.003Z,20.00
2017-08-15T18:16:08.530Z,19.90
2017-08-15T18:18:37.051Z,19.70
2017-08-15T18:21:06.371Z,19.50
2017-08-15T18:23:34.918Z,19.50
2017-08-15T18:26:03.476Z,19.40
2017-08-15T18:28:32.223Z,19.30
2017-08-15T18:31:00.736Z,19.30
2017-08-15T18:33:29.264Z,19.30
2017-08-15T18:35:57.820Z,19.20
2017-08-15T18:38:26.300Z,19.10
2017-08-15T18:40:54.972Z,19.00
2017-08-15T18:43:23.505Z,18.90
2017-08-15T18:45:52.045Z,18.80
2017-08-15T18:48:20.550Z,18.70
2017-08-15T18:50:56.243Z,18.60
2017-08-15T18:53:24.839Z,18.60
2017-08-15T18:55:53.364Z,18.50
2017-08-15T18:58:21.945Z,18.40
2017-08-15T19:00:50.515Z,18.40
2017-08-15T19:03:19.159Z,18.20
2017-08-15T19:05:47.695Z,18.20
2017-08-15T19:08:16.087Z,18.20
2017-08-15T19:10:44.619Z,18.20
2017-08-15T19:13:13.160Z,18.10
2017-08-15T19:15:41.650Z,18.10
2017-08-15T19:18:11.697Z,18.00
2017-08-15T19:20:40.610Z,17.90
2017-08-15T19:23:09.575Z,17.90
2017-08-15T19:25:38.116Z,17.90
2017-08-15T19:28:06.751Z,17.90
2017-08-15T19:42:08.659Z,17.80
2017-08-15T19:44:37.349Z,17.50
2017-08-15T19:47:05.839Z,17.40
2017-08-15T19:49:34.414Z,17.30
2017-08-15T19:52:02.931Z,17.30
2017-08-15T19:54:31.478Z,17.20
2017-08-15T19:57:00.900Z,17.20
2017-08-15T19:59:29.372Z,17.20
2017-08-15T20:01:57.866Z,17.20
2017-08-15T20:04:26.438Z,17.20
2017-08-15T20:06:55.211Z,17.10
2017-08-15T20:09:23.747Z,17.10
2017-08-15T20:11:52.348Z,17.00
2017-08-15T20:14:22.301Z,17.10
2017-08-15T20:16:51.804Z,17.00
2017-08-15T20:19:24.642Z,16.90
2017-08-15T20:21:56.872Z,16.90
2017-08-15T20:24:28.974Z,16.80
2017-08-15T20:26:57.517Z,16.70
2017-08-15T20:29:28.590Z,16.70
2017-08-15T20:32:01.498Z,16.70
2017-08-15T20:35:13.351Z,16.60
2017-08-15T20:37:41.868Z,16.60
2017-08-15T20:40:11.765Z,16.60
2017-08-15T20:42:41.657Z,16.60
2017-08-15T20:45:29.069Z,16.60
2017-08-15T20:47:57.665Z,16.50
2017-08-15T20:50:26.147Z,16.60
2017-08-15T20:52:54.871Z,16.60
2017-08-15T20:55:23.418Z,16.60
2017-08-15T20:57:51.959Z,16.60
2017-08-15T21:00:20.512Z,16.50
2017-08-15T21:02:49.080Z,16.40
2017-08-15T21:05:17.595Z,16.30
2017-08-15T21:07:46.326Z,16.30
2017-08-15T21:10:14.938Z,16.30
2017-08-15T21:12:43.507Z,16.30
2017-08-15T21:15:12.016Z,16.30
2017-08-15T21:17:40.556Z,16.20
2017-08-15T21:20:09.068Z,16.20
2017-08-15T21:22:37.575Z,16.20
2017-08-15T21:25:06.111Z,16.20
2017-08-15T21:27:34.631Z,16.20
2017-08-15T21:30:05.476Z,16.20
2017-08-15T21:33:17.074Z,16.20
2017-08-15T21:35:45.623Z,16.10
2017-08-15T21:38:23.191Z,16.20
2017-08-15T21:40:51.479Z,16.20
2017-08-15T21:43:20.003Z,16.30
2017-08-15T21:45:48.542Z,16.30
2017-08-15T21:48:17.098Z,16.20
2017-08-15T21:50:45.580Z,16.30
2017-08-15T21:53:14.153Z,16.30
2017-08-15T21:55:42.724Z,16.30
2017-08-15T21:58:11.202Z,16.30
2017-08-15T22:00:39.588Z,16.30
2017-08-15T22:03:08.146Z,16.30
2017-08-15T22:05:36.647Z,16.20
2017-08-15T22:08:05.157Z,16.20
2017-08-15T22:10:33.725Z,16.20
2017-08-15T22:13:02.225Z,16.10
2017-08-15T22:15:30.803Z,16.10
2017-08-15T22:17:59.281Z,16.10
2017-08-15T22:20:27.775Z,16.10
2017-08-15T22:22:56.296Z,16.10
2017-08-15T22:25:24.830Z,16.20
2017-08-15T22:27:53.416Z,16.10
2017-08-15T22:30:21.883Z,16.10
2017-08-15T22:32:50.388Z,16.10
2017-08-15T22:35:18.932Z,16.10
2017-08-15T22:37:47.447Z,16.10
2017-08-15T22:40:16.214Z,16.10
2017-08-15T22:42:44.794Z,16.00
2017-08-15T22:45:13.256Z,15.90
2017-08-15T22:47:41.937Z,15.80
2017-08-15T22:50:10.610Z,15.80
2017-08-15T22:52:39.104Z,15.80
2017-08-15T22:55:07.670Z,15.80
2017-08-15T22:57:36.250Z,15.80
2017-08-15T23:00:04.717Z,15.70
2017-08-15T23:02:33.233Z,15.90
2017-08-15T23:05:01.780Z,15.80
2017-08-15T23:07:30.241Z,15.80
2017-08-15T23:09:58.730Z,15.80
2017-08-15T23:15:41.814Z,15.90
2017-08-15T23:18:10.672Z,16.00
2017-08-15T23:20:38.853Z,16.10
2017-08-15T23:23:07.392Z,16.30
2017-08-15T23:25:35.916Z,16.50
2017-08-15T23:28:04.419Z,16.50
2017-08-15T23:30:32.893Z,16.30
2017-08-15T23:33:01.430Z,16.20
2017-08-15T23:35:29.945Z,16.20
2017-08-15T23:37:58.478Z,16.10
2017-08-15T23:40:26.977Z,16.00
2017-08-15T23:42:55.505Z,16.00
2017-08-15T23:45:24.330Z,16.00
2017-08-15T23:47:52.931Z,15.90
2017-08-15T23:50:21.468Z,15.90
2017-08-15T23:52:49.945Z,15.80
2017-08-15T23:55:18.415Z,15.80
2017-08-15T23:57:47.025Z,15.70
